Time;durP1;ratioP1;P1;durP2;ratioP2;P2;SDS_P1;SDS_P2;PMS_P1;PMS_P2;Temp;Humidity;BMP_temperature;BMP_pressure;BME280_temperature;BME280_humidity;BME280_pressure;Samples;Min_cycle;Max_cycle;Signal;HPM_P1;HPM_P2
2021/08/05 00:02:19;;;;;;;5.60;4.53;;;;;;;16.30;74.72;98491.41;3592168;40;20068;-69
2021/08/05 00:04:47;;;;;;;7.07;5.30;;;;;;;16.31;74.91;98498.34;3591644;40;20056;-68
2021/08/05 00:07:16;;;;;;;5.60;3.92;;;;;;;16.28;75.06;98496.94;3591592;40;20389;-69
2021/08/05 00:09:44;;;;;;;6.43;4.07;;;;;;;16.31;75.06;98496.50;3589607;40;20055;-69
2021/08/05 00:12:12;;;;;;;5.32;4.22;;;;;;;16.26;74.98;98496.41;3590114;40;20060;-69
2021/08/05 00:14:41;;;;;;;5.20;3.53;;;;;;;16.21;75.15;98501.63;3589603;40;20044;-69
2021/08/05 00:17:10;;;;;;;4.68;4.15;;;;;;;16.14;75.60;98494.81;3590603;40;20140;-69
2021/08/05 00:19:39;;;;;;;5.13;4.22;;;;;;;16.19;75.21;98494.91;3589828;40;20052;-68
2021/08/05 00:22:09;;;;;;;6.22;4.80;;;;;;;16.18;75.22;98495.97;3590297;40;20051;-69
2021/08/05 00:24:36;;;;;;;7.00;4.10;;;;;;;16.15;75.36;98501.75;3590302;40;20062;-68
2021/08/05 00:27:05;;;;;;;4.85;4.18;;;;;;;16.15;75.37;98496.41;3589784;40;20056;-68
2021/08/05 00:29:32;;;;;;;4.70;4.07;;;;;;;16.11;75.49;98493.41;3589065;40;20056;-69
2021/08/05 00:32:00;;;;;;;5.97;4.00;;;;;;;16.11;75.70;98482.75;3590327;40;20049;-70
2021/08/05 00:34:28;;;;;;;10.93;5.18;;;;;;;16.08;76.11;98486.72;3589249;40;20040;-70
2021/08/05 00:36:57;;;;;;;6.25;4.43;;;;;;;16.11;75.81;98482.75;3588951;40;20303;-70
2021/08/05 00:39:25;;;;;;;6.03;4.38;;;;;;;16.08;75.61;98484.06;3589180;40;20595;-70
2021/08/05 00:41:53;;;;;;;6.65;4.20;;;;;;;16.10;75.61;98486.47;3589031;40;20299;-70
2021/08/05 00:44:21;;;;;;;5.00;4.50;;;;;;;16.13;75.53;98482.53;3590536;40;20082;-70
2021/08/05 00:46:48;;;;;;;6.53;4.05;;;;;;;16.11;75.47;98488.09;3593873;40;20048;-70
2021/08/05 00:49:16;;;;;;;4.55;3.85;;;;;;;16.19;75.82;98476.25;3593268;40;20059;-70
2021/08/05 00:51:44;;;;;;;10.52;4.95;;;;;;;16.25;75.42;98470.78;3592480;40;20048;-70
2021/08/05 00:54:13;;;;;;;7.10;4.40;;;;;;;16.27;74.99;98474.00;3590657;40;20048;-70
2021/08/05 00:56:41;;;;;;;5.35;4.00;;;;;;;16.21;75.04;98463.50;3589767;40;20074;-70
2021/08/05 00:59:09;;;;;;;7.13;4.28;;;;;;;16.11;75.34;98461.41;3589310;40;20072;-70
2021/08/05 01:01:40;;;;;;;5.38;4.20;;;;;;;16.04;76.13;98463.41;3589395;40;20048;-70
2021/08/05 01:04:09;;;;;;;5.63;4.18;;;;;;;16.08;75.94;98456.56;3589289;40;20347;-70
2021/08/05 01:06:43;;;;;;;6.38;4.40;;;;;;;16.06;75.75;98456.78;3589353;40;20060;-70
2021/08/05 01:09:20;;;;;;;6.10;3.92;;;;;;;15.98;76.15;98459.03;3588911;40;20322;-70
2021/08/05 01:11:55;;;;;;;7.30;4.40;;;;;;;15.99;76.13;98457.97;3590220;40;20138;-70
2021/08/05 01:14:24;;;;;;;4.57;4.18;;;;;;;16.02;75.84;98460.97;3589220;40;20072;-70
2021/08/05 01:16:53;;;;;;;8.15;4.00;;;;;;;16.06;75.83;98456.78;3590111;40;20056;-70
2021/08/05 01:19:29;;;;;;;4.82;4.18;;;;;;;16.10;75.93;98454.47;3588674;40;20091;-70
2021/08/05 01:22:04;;;;;;;5.78;4.03;;;;;;;16.06;75.70;98456.00;3588980;40;20122;-70
2021/08/05 01:24:37;;;;;;;5.93;4.70;;;;;;;16.04;75.34;98456.25;3590044;40;20088;-70
2021/08/05 01:27:06;;;;;;;4.80;4.40;;;;;;;16.07;75.63;98457.59;3589092;40;20134;-70
2021/08/05 01:29:36;;;;;;;6.18;4.20;;;;;;;16.08;75.42;98453.88;3588881;40;20318;-70
2021/08/05 01:32:06;;;;;;;5.97;4.13;;;;;;;16.03;75.40;98451.13;3589916;40;20064;-70
2021/08/05 01:34:37;;;;;;;5.50;3.75;;;;;;;16.05;75.19;98447.19;3589987;40;20075;-70
2021/08/05 01:37:08;;;;;;;4.75;3.40;;;;;;;16.09;75.46;98451.00;3588852;40;20432;-70
2021/08/05 01:39:36;;;;;;;4.60;3.85;;;;;;;16.07;75.34;98447.75;3589535;40;20055;-70
2021/08/05 01:42:06;;;;;;;6.00;4.13;;;;;;;16.09;75.55;98442.19;3589831;40;20063;-68
2021/08/05 01:44:35;;;;;;;5.00;4.25;;;;;;;16.04;75.25;98440.25;3589268;40;20426;-69
2021/08/05 01:47:04;;;;;;;5.35;3.88;;;;;;;16.00;75.50;98440.91;3589950;40;20053;-69
2021/08/05 01:49:33;;;;;;;5.60;3.83;;;;;;;15.98;74.93;98441.16;3589332;40;20041;-71
2021/08/05 01:52:02;;;;;;;5.10;4.22;;;;;;;15.88;75.32;98442.81;3589091;40;20044;-70
2021/08/05 01:54:30;;;;;;;6.38;3.90;;;;;;;15.74;75.22;98447.59;3590423;40;20045;-70
2021/08/05 01:56:57;;;;;;;5.95;4.78;;;;;;;15.68;75.96;98443.22;3588894;40;20067;-70
2021/08/05 01:59:26;;;;;;;4.63;3.70;;;;;;;15.66;76.08;98435.44;3588695;40;20041;-70
2021/08/05 02:01:54;;;;;;;6.20;3.95;;;;;;;15.71;76.47;98438.22;3588846;40;20048;-70
2021/08/05 02:04:33;;;;;;;7.55;4.30;;;;;;;15.74;76.42;98440.41;3591062;40;20052;-71
2021/08/05 02:07:08;;;;;;;4.28;3.88;;;;;;;15.85;75.93;98444.09;3596550;40;20079;-71
2021/08/05 02:09:42;;;;;;;4.25;3.80;;;;;;;15.81;75.60;98442.97;3596932;40;20411;-71
2021/08/05 02:12:12;;;;;;;7.43;5.22;;;;;;;15.76;75.75;98440.19;3596941;40;20025;-70
2021/08/05 02:14:42;;;;;;;4.93;4.22;;;;;;;15.69;75.54;98442.97;3596489;40;20092;-71
2021/08/05 02:17:12;;;;;;;4.97;4.45;;;;;;;15.61;76.20;98429.97;3588964;40;20148;-70
2021/08/05 02:19:41;;;;;;;4.80;4.25;;;;;;;15.52;76.45;98426.06;3589717;40;20068;-70
2021/08/05 02:22:09;;;;;;;6.28;4.38;;;;;;;15.47;76.98;98424.09;3589002;40;20076;-70
2021/08/05 02:24:37;;;;;;;5.07;4.35;;;;;;;15.44;76.52;98421.91;3588827;40;20329;-70
2021/08/05 02:27:05;;;;;;;9.02;4.28;;;;;;;15.42;77.15;98420.50;3588628;40;20353;-70
2021/08/05 02:29:34;;;;;;;7.05;4.13;;;;;;;15.44;76.98;98423.75;3588814;40;20117;-70
2021/08/05 02:32:03;;;;;;;6.55;4.70;;;;;;;15.52;76.89;98418.88;3589704;40;20048;-70
2021/08/05 02:34:35;;;;;;;5.25;4.75;;;;;;;15.51;76.69;98417.25;3588925;40;20092;-70
2021/08/05 02:37:04;;;;;;;4.38;3.95;;;;;;;15.53;76.65;98409.84;3588772;40;20053;-70
2021/08/05 02:39:33;;;;;;;4.70;4.05;;;;;;;15.49;76.50;98416.66;3588688;40;20392;-70
2021/08/05 02:42:02;;;;;;;5.78;4.60;;;;;;;15.46;76.85;98408.34;3588720;40;20048;-70
2021/08/05 02:44:31;;;;;;;5.60;5.00;;;;;;;15.39;76.90;98410.31;3589213;40;20037;-70
2021/08/05 02:47:01;;;;;;;5.88;4.70;;;;;;;15.36;77.14;98419.59;3588860;40;20075;-70
2021/08/05 02:49:31;;;;;;;6.32;4.60;;;;;;;15.34;77.24;98408.34;3589796;40;20250;-70
2021/08/05 02:52:00;;;;;;;5.93;4.43;;;;;;;15.31;77.45;98417.63;3589155;40;20088;-70
2021/08/05 02:54:29;;;;;;;5.13;4.28;;;;;;;15.27;77.51;98413.81;3589574;40;20053;-70
2021/08/05 02:56:58;;;;;;;4.57;4.18;;;;;;;15.26;77.11;98414.81;3590137;40;20072;-70
2021/08/05 02:59:27;;;;;;;5.00;4.00;;;;;;;15.23;77.41;98412.66;3587988;40;20052;-70
2021/08/05 03:01:55;;;;;;;7.55;4.22;;;;;;;15.24;77.20;98410.78;3588750;40;20394;-70
2021/08/05 03:04:23;;;;;;;6.50;4.70;;;;;;;15.26;77.32;98406.84;3589689;40;20389;-70
2021/08/05 03:06:52;;;;;;;5.55;3.83;;;;;;;15.26;77.46;98416.69;3588611;40;20137;-70
2021/08/05 03:09:20;;;;;;;5.30;4.68;;;;;;;15.25;77.37;98405.22;3589438;40;20088;-70
2021/08/05 03:11:47;;;;;;;7.05;4.93;;;;;;;15.23;77.56;98412.66;3589691;40;20395;-70
2021/08/05 03:14:15;;;;;;;6.47;4.53;;;;;;;15.22;77.04;98410.19;3588475;40;20432;-70
2021/08/05 03:16:43;;;;;;;5.50;4.57;;;;;;;15.15;77.39;98412.19;3588704;40;20064;-70
2021/08/05 03:19:11;;;;;;;6.40;4.45;;;;;;;15.07;77.85;98410.69;3588643;40;20056;-70
2021/08/05 03:21:39;;;;;;;5.45;4.30;;;;;;;15.08;78.02;98404.31;3589201;40;20063;-70
2021/08/05 03:24:08;;;;;;;6.65;4.38;;;;;;;15.12;77.88;98402.81;3590046;40;20061;-69
2021/08/05 03:26:36;;;;;;;6.88;4.38;;;;;;;15.13;77.44;98403.59;3589783;40;20055;-70
2021/08/05 03:29:04;;;;;;;4.82;4.05;;;;;;;15.11;78.07;98404.66;3588373;40;20040;-70
2021/08/05 03:31:31;;;;;;;10.98;7.85;;;;;;;15.18;77.90;98407.19;3588570;40;20053;-70
2021/08/05 03:33:59;;;;;;;6.40;5.00;;;;;;;15.21;77.79;98404.06;3589397;40;20052;-70
2021/08/05 03:36:27;;;;;;;5.55;4.07;;;;;;;15.22;77.76;98407.53;3589745;40;20066;-69
2021/08/05 03:38:55;;;;;;;7.55;5.43;;;;;;;15.25;77.12;98399.91;3588094;40;20055;-70
2021/08/05 03:41:24;;;;;;;7.75;3.95;;;;;;;15.20;77.28;98398.97;3588438;40;20064;-70
2021/08/05 03:43:52;;;;;;;7.38;4.03;;;;;;;15.18;77.49;98393.88;3589607;40;20059;-70
2021/08/05 03:46:20;;;;;;;6.53;5.38;;;;;;;15.26;77.64;98400.69;3589328;40;20393;-70
2021/08/05 03:48:47;;;;;;;4.95;4.45;;;;;;;15.22;77.15;98407.53;3588157;40;20049;-70
2021/08/05 03:51:15;;;;;;;5.68;4.78;;;;;;;15.12;77.26;98402.81;3588579;40;20041;-70
2021/08/05 03:53:44;;;;;;;5.38;3.72;;;;;;;15.09;77.86;98400.59;3589442;40;20088;-73
2021/08/05 03:56:12;;;;;;;4.88;4.32;;;;;;;15.16;77.65;98400.50;3589028;40;20048;-68
2021/08/05 03:58:41;;;;;;;8.00;4.22;;;;;;;15.23;77.53;98403.84;3587889;40;20065;-68
2021/08/05 04:01:09;;;;;;;5.72;4.53;;;;;;;15.31;77.87;98408.81;3587881;40;20407;-68
2021/08/05 04:03:37;;;;;;;6.35;4.93;;;;;;;15.40;77.45;98409.28;3589558;40;20033;-68
2021/08/05 04:06:04;;;;;;;5.95;4.78;;;;;;;15.48;76.95;98407.06;3588991;40;20051;-68
2021/08/05 04:08:32;;;;;;;5.68;5.10;;;;;;;15.52;77.37;98400.22;3590875;40;20041;-69
2021/08/05 04:11:00;;;;;;;5.97;4.70;;;;;;;15.56;76.80;98404.03;3590173;40;20088;-69
2021/08/05 04:13:28;;;;;;;4.97;4.50;;;;;;;15.58;76.92;98399.28;3588084;40;20076;-68
2021/08/05 04:15:57;;;;;;;7.53;4.97;;;;;;;15.64;76.66;98400.22;3587914;40;20028;-68
2021/08/05 04:18:25;;;;;;;8.98;5.18;;;;;;;15.68;76.74;98392.59;3588684;40;20032;-68
2021/08/05 04:20:53;;;;;;;10.48;5.00;;;;;;;15.69;76.40;98388.88;3588766;40;20032;-68
2021/08/05 04:23:20;;;;;;;7.72;4.63;;;;;;;15.70;76.42;98385.16;3589728;40;20291;-70
2021/08/05 04:25:48;;;;;;;6.03;5.05;;;;;;;15.74;76.33;98380.97;3590527;40;20549;-69
2021/08/05 04:28:16;;;;;;;6.50;4.65;;;;;;;15.79;76.13;98387.22;3590391;40;20404;-69
2021/08/05 04:30:44;;;;;;;7.65;4.95;;;;;;;15.85;76.04;98391.59;3589501;40;20088;-69
2021/08/05 04:33:13;;;;;;;8.18;5.30;;;;;;;15.87;76.13;98386.03;3590662;40;20049;-69
2021/08/05 04:35:40;;;;;;;26.45;20.05;;;;;;;15.91;76.02;98383.69;3590744;40;20052;-69
2021/08/05 04:38:10;;;;;;;10.25;6.90;;;;;;;15.89;75.97;98373.28;3590983;40;20089;-69
2021/08/05 04:40:38;;;;;;;7.78;6.07;;;;;;;15.80;75.49;98382.72;3591256;40;20056;-69
2021/08/05 04:43:06;;;;;;;6.70;6.00;;;;;;;15.71;75.47;98386.78;3590611;40;20054;-69
2021/08/05 04:45:33;;;;;;;8.65;5.45;;;;;;;15.64;75.50;98386.09;3590519;40;20048;-70
2021/08/05 04:48:06;;;;;;;5.70;4.68;;;;;;;15.59;75.36;98387.59;3590341;40;20400;-70
2021/08/05 04:50:37;;;;;;;7.22;5.00;;;;;;;15.61;75.66;98390.00;3590302;40;20029;-70
2021/08/05 04:53:06;;;;;;;5.75;5.18;;;;;;;15.61;75.65;98392.69;3589248;40;20083;-70
2021/08/05 04:55:35;;;;;;;7.53;4.60;;;;;;;15.58;75.32;98388.63;3589553;40;20084;-70
2021/08/05 04:58:06;;;;;;;6.55;4.75;;;;;;;15.55;75.74;98394.44;3590024;40;20080;-70
2021/08/05 05:00:36;;;;;;;9.35;5.32;;;;;;;15.50;75.55;98391.66;3590391;40;20443;-70
2021/08/05 05:03:05;;;;;;;8.45;5.90;;;;;;;15.45;76.11;98390.75;3589739;40;20046;-69
2021/08/05 05:05:35;;;;;;;5.47;4.43;;;;;;;15.48;76.28;98392.94;3589063;40;20048;-69
2021/08/05 05:08:12;;;;;;;8.18;5.93;;;;;;;15.61;75.93;98392.69;3589785;40;20082;-68
2021/08/05 05:10:40;;;;;;;9.23;4.68;;;;;;;15.72;75.97;98389.22;3588993;40;20052;-68
2021/08/05 05:13:08;;;;;;;7.65;4.53;;;;;;;15.93;75.54;98392.28;3588564;40;20059;-69
2021/08/05 05:15:35;;;;;;;5.30;4.80;;;;;;;16.07;75.46;98396.28;3588213;40;20335;-68
2021/08/05 05:18:04;;;;;;;7.03;4.85;;;;;;;16.18;74.70;98390.09;3589505;40;20417;-69
2021/08/05 05:20:32;;;;;;;5.60;4.50;;;;;;;16.25;74.64;98384.63;3590311;40;20054;-69
2021/08/05 05:23:01;;;;;;;6.82;4.50;;;;;;;16.30;74.08;98388.19;3590370;40;20083;-70
2021/08/05 05:25:30;;;;;;;6.28;4.88;;;;;;;16.34;74.17;98385.84;3589257;40;20471;-68
2021/08/05 05:27:57;;;;;;;6.78;4.93;;;;;;;16.32;74.39;98391.41;3590235;40;20033;-68
2021/08/05 05:30:25;;;;;;;7.78;5.63;;;;;;;16.35;73.94;98384.78;3589724;40;20051;-68
2021/08/05 05:32:53;;;;;;;8.40;4.75;;;;;;;16.43;73.97;98386.25;3588759;40;20416;-69
2021/08/05 05:35:21;;;;;;;5.85;4.78;;;;;;;16.44;73.96;98382.53;3589155;40;20341;-69
2021/08/05 05:37:51;;;;;;;6.60;4.70;;;;;;;16.53;73.85;98381.94;3589252;40;20025;-70
2021/08/05 05:40:20;;;;;;;7.22;4.32;;;;;;;16.68;73.65;98380.53;3589817;40;20294;-69
2021/08/05 05:42:49;;;;;;;7.10;5.35;;;;;;;16.71;73.92;98380.06;3590151;40;20057;-70
2021/08/05 05:45:18;;;;;;;7.55;4.60;;;;;;;16.74;73.44;98383.09;3589816;40;20328;-69
2021/08/05 05:47:46;;;;;;;6.55;4.63;;;;;;;16.78;73.46;98381.56;3589884;40;20052;-69
2021/08/05 05:50:16;;;;;;;8.13;4.85;;;;;;;16.87;73.00;98384.63;3588457;40;20070;-69
2021/08/05 05:52:45;;;;;;;9.00;5.03;;;;;;;16.96;73.09;98379.69;3589964;40;20048;-69
2021/08/05 05:55:13;;;;;;;8.45;4.88;;;;;;;17.02;72.69;98381.38;3589162;40;20102;-70
2021/08/05 05:57:42;;;;;;;5.47;4.90;;;;;;;17.07;72.91;98381.47;3589090;40;20128;-70
2021/08/05 06:00:11;;;;;;;6.10;4.60;;;;;;;17.09;72.32;98390.03;3588662;40;20398;-69
2021/08/05 06:02:39;;;;;;;5.50;4.63;;;;;;;17.09;72.58;98393.50;3588711;40;20109;-69
2021/08/05 06:05:08;;;;;;;5.15;4.50;;;;;;;17.19;72.55;98392.84;3589762;40;20021;-69
2021/08/05 06:07:44;;;;;;;5.97;4.55;;;;;;;17.24;72.16;98394.78;3589711;40;20080;-69
2021/08/05 06:10:14;;;;;;;7.10;4.38;;;;;;;17.29;71.94;98393.00;3589153;40;20088;-70
2021/08/05 06:12:43;;;;;;;7.25;5.18;;;;;;;17.29;71.49;98390.31;3590331;40;20152;-70
2021/08/05 06:15:12;;;;;;;5.93;4.57;;;;;;;17.30;71.79;98391.94;3590940;40;20052;-70
2021/08/05 06:17:41;;;;;;;7.63;5.18;;;;;;;17.32;71.76;98394.38;3591067;40;20144;-69
2021/08/05 06:20:11;;;;;;;6.88;5.40;;;;;;;17.38;71.38;98384.56;3589581;40;20048;-69
2021/08/05 06:22:40;;;;;;;6.78;4.82;;;;;;;17.45;71.33;98386.00;3590655;40;20142;-69
2021/08/05 06:25:09;;;;;;;5.93;5.03;;;;;;;17.60;71.38;98379.25;3591221;40;20044;-70
2021/08/05 06:27:38;;;;;;;7.47;4.72;;;;;;;17.66;70.74;98379.03;3589022;40;20129;-71
2021/08/05 06:30:09;;;;;;;7.63;4.82;;;;;;;17.84;70.92;98380.66;3589505;40;20033;-69
2021/08/05 06:32:37;;;;;;;8.20;5.00;;;;;;;18.01;70.23;98378.69;3589341;40;20048;-70
2021/08/05 06:35:06;;;;;;;5.47;4.47;;;;;;;18.13;69.64;98378.56;3588975;40;20045;-69
2021/08/05 06:37:35;;;;;;;6.35;4.97;;;;;;;18.26;69.58;98378.16;3589654;40;20061;-69
2021/08/05 06:40:05;;;;;;;7.53;4.90;;;;;;;18.30;68.97;98375.78;3593211;40;20032;-69
2021/08/05 06:42:33;;;;;;;9.02;4.43;;;;;;;18.35;68.48;98380.38;3591145;40;20347;-69
2021/08/05 06:45:01;;;;;;;5.55;4.32;;;;;;;18.33;68.52;98377.94;3589601;40;20052;-70
2021/08/05 06:47:30;;;;;;;6.47;4.95;;;;;;;18.42;68.77;98378.28;3589293;40;20394;-70
2021/08/05 06:49:58;;;;;;;5.15;3.67;;;;;;;18.50;68.53;98375.97;3588546;40;20487;-68
2021/08/05 06:52:26;;;;;;;4.38;4.00;;;;;;;18.59;68.27;98378.19;3589513;40;20033;-69
2021/08/05 06:54:53;;;;;;;8.57;4.72;;;;;;;18.63;67.84;98382.75;3589494;40;20048;-68
2021/08/05 06:57:21;;;;;;;4.45;4.05;;;;;;;18.63;67.57;98372.06;3588841;40;20065;-71
2021/08/05 06:59:49;;;;;;;7.85;4.45;;;;;;;18.62;67.84;98370.44;3588849;40;20068;-70
2021/08/05 07:02:17;;;;;;;5.95;4.32;;;;;;;18.64;67.81;98370.97;3590400;40;20084;-69
2021/08/05 07:04:46;;;;;;;5.28;4.50;;;;;;;18.68;67.86;98374.75;3590365;40;20125;-70
2021/08/05 07:07:14;;;;;;;9.18;4.25;;;;;;;18.77;67.81;98377.81;3592390;40;20051;-71
2021/08/05 07:09:41;;;;;;;7.10;4.32;;;;;;;18.94;67.08;98380.34;3591100;40;20029;-71
2021/08/05 07:12:09;;;;;;;5.20;4.20;;;;;;;19.12;66.83;98379.13;3591583;40;20433;-71
2021/08/05 07:14:39;;;;;;;5.78;4.38;;;;;;;19.33;66.44;98377.38;3591474;40;20051;-70
2021/08/05 07:17:07;;;;;;;4.50;4.10;;;;;;;19.44;66.05;98379.06;3590197;40;20049;-72
2021/08/05 07:19:35;;;;;;;4.55;3.85;;;;;;;19.58;65.71;98377.50;3590085;40;20065;-72
2021/08/05 07:22:04;;;;;;;8.25;4.60;;;;;;;19.67;65.29;98370.59;3592850;40;20084;-71
2021/08/05 07:24:32;;;;;;;4.60;4.13;;;;;;;19.73;65.12;98374.94;3591376;40;20044;-70
2021/08/05 07:27:00;;;;;;;6.20;4.38;;;;;;;19.67;64.76;98367.91;3589922;40;20040;-70
2021/08/05 07:29:29;;;;;;;5.13;4.63;;;;;;;19.70;64.23;98362.03;3588492;40;20068;-69
2021/08/05 07:31:59;;;;;;;4.25;3.78;;;;;;;19.74;64.08;98363.13;3590104;40;20052;-70
2021/08/05 07:34:27;;;;;;;4.40;3.80;;;;;;;19.77;64.18;98361.81;3589139;40;20070;-70
2021/08/05 07:36:54;;;;;;;6.38;4.40;;;;;;;19.76;63.87;98357.53;3589017;40;20069;-70
2021/08/05 07:39:24;;;;;;;6.70;4.80;;;;;;;19.94;63.61;98348.97;3589404;40;20048;-71
2021/08/05 07:41:51;;;;;;;5.40;4.05;;;;;;;19.96;63.02;98349.53;3589744;40;20051;-71
2021/08/05 07:44:19;;;;;;;5.72;3.75;;;;;;;20.07;62.93;98344.97;3590078;40;20045;-71
2021/08/05 07:46:48;;;;;;;4.40;3.80;;;;;;;20.18;62.38;98343.13;3589681;40;20060;-70
2021/08/05 07:49:16;;;;;;;4.43;4.03;;;;;;;20.08;62.50;98341.22;3588450;40;20044;-70
2021/08/05 07:51:44;;;;;;;4.00;3.70;;;;;;;19.96;63.11;98335.28;3589471;40;20387;-70
2021/08/05 07:54:11;;;;;;;6.47;4.53;;;;;;;20.09;62.73;98337.50;3589846;40;20047;-70
2021/08/05 07:56:40;;;;;;;4.35;3.95;;;;;;;19.99;62.61;98338.25;3591467;40;20430;-70
2021/08/05 07:59:08;;;;;;;4.95;4.10;;;;;;;19.95;62.29;98339.84;3591252;40;20071;-70
2021/08/05 08:01:36;;;;;;;3.83;3.53;;;;;;;19.92;62.64;98332.34;3591579;40;20420;-70
2021/08/05 08:04:05;;;;;;;4.50;4.10;;;;;;;20.00;62.59;98336.38;3589574;40;20102;-69
2021/08/05 08:06:33;;;;;;;4.13;3.65;;;;;;;20.12;62.26;98333.44;3589443;40;20044;-71
2021/08/05 08:09:00;;;;;;;6.97;3.95;;;;;;;20.36;61.53;98333.75;3588058;40;20048;-69
2021/08/05 08:11:30;;;;;;;6.97;4.15;;;;;;;20.41;60.41;98337.25;3589465;40;20055;-70
2021/08/05 08:13:59;;;;;;;4.38;3.75;;;;;;;20.41;60.11;98334.59;3588722;40;20048;-70
2021/08/05 08:16:27;;;;;;;5.80;4.38;;;;;;;20.49;60.41;98331.41;3588693;40;20040;-70
2021/08/05 08:18:55;;;;;;;7.10;5.90;;;;;;;20.73;59.70;98336.19;3588959;40;20052;-70
2021/08/05 08:21:23;;;;;;;6.05;4.88;;;;;;;20.89;58.91;98334.31;3589345;40;20051;-70
2021/08/05 08:23:50;;;;;;;5.80;4.20;;;;;;;20.97;58.33;98328.38;3588295;40;20050;-70
2021/08/05 08:26:18;;;;;;;4.57;3.20;;;;;;;20.99;57.90;98326.25;3589256;40;20060;-70
2021/08/05 08:28:46;;;;;;;4.00;3.42;;;;;;;21.11;57.07;98334.00;3587776;40;20044;-71
2021/08/05 08:31:15;;;;;;;4.72;3.30;;;;;;;21.14;56.30;98322.69;3588134;40;20055;-70
2021/08/05 08:33:43;;;;;;;3.95;2.90;;;;;;;21.07;56.02;98320.31;3589265;40;20060;-70
2021/08/05 08:36:11;;;;;;;3.40;2.58;;;;;;;21.08;56.40;98321.13;3588852;40;20383;-69
2021/08/05 08:38:42;;;;;;;3.20;2.90;;;;;;;21.14;56.28;98326.19;3587426;40;20089;-69
2021/08/05 08:41:11;;;;;;;2.78;2.33;;;;;;;21.31;55.21;98319.69;3587966;40;20049;-69
2021/08/05 08:43:40;;;;;;;2.40;2.20;;;;;;;21.46;54.61;98322.34;3588474;40;20025;-69
2021/08/05 08:46:12;;;;;;;3.53;2.63;;;;;;;21.58;53.21;98322.03;3587728;40;20068;-70
2021/08/05 08:48:45;;;;;;;3.28;3.05;;;;;;;21.80;53.49;98319.81;3587160;40;20045;-71
2021/08/05 08:51:13;;;;;;;3.60;2.53;;;;;;;21.93;53.11;98321.06;3587816;40;20335;-71
2021/08/05 08:53:44;;;;;;;4.75;2.65;;;;;;;22.23;52.12;98314.72;3588662;40;20110;-70
2021/08/05 08:56:12;;;;;;;3.28;2.70;;;;;;;22.37;51.43;98317.56;3588428;40;20048;-70
2021/08/05 08:58:40;;;;;;;2.53;2.28;;;;;;;22.31;51.09;98318.69;3586721;40;20037;-69
2021/08/05 09:01:09;;;;;;;2.42;2.22;;;;;;;22.18;51.56;98312.84;3587733;40;20050;-68
2021/08/05 09:03:37;;;;;;;3.60;2.05;;;;;;;22.05;52.01;98308.06;3587432;40;20056;-68
2021/08/05 09:06:06;;;;;;;3.30;2.20;;;;;;;21.89;51.83;98309.25;3587403;40;20041;-69
2021/08/05 09:08:38;;;;;;;2.50;2.08;;;;;;;21.81;51.99;98307.94;3588300;40;20082;-68
2021/08/05 09:11:05;;;;;;;2.20;2.00;;;;;;;21.69;51.60;98307.47;3594201;40;20077;-69
2021/08/05 09:13:34;;;;;;;2.42;1.83;;;;;;;21.68;52.14;98306.69;3593344;40;20133;-70
2021/08/05 09:16:02;;;;;;;2.92;2.25;;;;;;;21.72;52.17;98305.03;3588828;40;20059;-70
2021/08/05 09:18:32;;;;;;;2.00;1.80;;;;;;;22.01;51.68;98299.75;3588402;40;20052;-70
2021/08/05 09:21:09;;;;;;;3.17;2.22;;;;;;;22.04;51.71;98300.25;3588546;40;20063;-69
2021/08/05 09:23:52;;;;;;;2.97;2.30;;;;;;;22.13;51.25;98296.75;3586502;40;20093;-71
2021/08/05 09:26:29;;;;;;;2.07;1.80;;;;;;;22.16;51.00;98298.06;3588296;40;20303;-70
2021/08/05 09:29:05;;;;;;;2.80;1.70;;;;;;;22.15;50.67;98294.56;3587892;40;20125;-70
2021/08/05 09:31:34;;;;;;;2.58;2.10;;;;;;;22.20;50.99;98293.72;3587650;40;20048;-70
2021/08/05 09:34:03;;;;;;;2.00;1.80;;;;;;;22.29;50.89;98286.69;3588238;40;20048;-70
2021/08/05 09:36:33;;;;;;;2.00;1.80;;;;;;;22.36;51.29;98286.34;3588298;40;20050;-70
2021/08/05 09:39:01;;;;;;;2.85;2.22;;;;;;;22.36;50.77;98289.03;3587403;40;20056;-70
2021/08/05 09:41:29;;;;;;;2.95;2.50;;;;;;;22.32;50.41;98279.91;3588477;40;20398;-70
2021/08/05 09:44:06;;;;;;;3.05;2.20;;;;;;;22.26;50.90;98289.91;3595491;40;20045;-70
2021/08/05 09:46:34;;;;;;;3.13;1.95;;;;;;;22.24;50.63;98292.88;3588731;40;20297;-69
2021/08/05 09:49:02;;;;;;;1.75;1.65;;;;;;;22.10;50.43;98291.09;3586641;40;20088;-71
2021/08/05 09:51:30;;;;;;;2.10;1.70;;;;;;;22.14;50.88;98284.88;3588143;40;20258;-70
2021/08/05 09:54:04;;;;;;;2.33;1.92;;;;;;;22.39;50.43;98281.19;3588274;40;20059;-70
2021/08/05 09:56:34;;;;;;;1.92;1.83;;;;;;;22.51;50.20;98278.13;3587219;40;20040;-71
2021/08/05 09:59:11;;;;;;;2.45;1.83;;;;;;;22.57;50.25;98271.59;3587851;40;20122;-70
2021/08/05 10:01:59;;;;;;;2.15;1.63;;;;;;;22.53;50.02;98281.34;3588145;40;20442;-70
2021/08/05 10:04:29;;;;;;;2.47;1.88;;;;;;;22.55;50.26;98273.78;3595584;40;20327;-70
2021/08/05 10:07:00;;;;;;;1.80;1.70;;;;;;;22.72;49.58;98266.06;3587157;40;20040;-71
2021/08/05 10:09:29;;;;;;;1.83;1.63;;;;;;;22.77;49.33;98270.59;3588803;40;20041;-71
2021/08/05 10:12:19;;;;;;;1.83;1.58;;;;;;;23.05;49.10;98270.88;3588769;40;20060;-71
2021/08/05 10:14:49;;;;;;;2.85;2.65;;;;;;;23.10;48.66;98258.16;3589327;40;20060;-71
2021/08/05 10:17:20;;;;;;;1.35;1.25;;;;;;;23.25;48.39;98267.97;3589781;40;20056;-71
2021/08/05 10:19:48;;;;;;;2.25;1.55;;;;;;;23.23;47.60;98262.88;3588116;40;20318;-70
2021/08/05 10:22:18;;;;;;;1.98;1.50;;;;;;;23.42;48.22;98259.38;3588957;40;20027;-71
2021/08/05 10:24:50;;;;;;;1.48;1.38;;;;;;;23.49;47.69;98249.06;3589394;40;20035;-71
2021/08/05 10:27:19;;;;;;;1.83;1.40;;;;;;;23.58;47.74;98246.50;3588850;40;20029;-69
2021/08/05 10:29:50;;;;;;;2.85;1.70;;;;;;;23.54;47.72;98245.47;3588218;40;20051;-70
2021/08/05 10:32:21;;;;;;;2.88;1.60;;;;;;;23.36;47.66;98247.88;3589534;40;20394;-69
2021/08/05 10:34:51;;;;;;;1.40;1.30;;;;;;;23.34;47.51;98241.16;3589266;40;20134;-71
2021/08/05 10:37:19;;;;;;;1.70;1.40;;;;;;;23.29;47.12;98239.31;3588640;40;20049;-71
2021/08/05 10:39:50;;;;;;;2.15;1.40;;;;;;;23.09;47.40;98242.28;3589135;40;20059;-70
2021/08/05 10:42:19;;;;;;;4.45;1.90;;;;;;;22.93;48.17;98231.66;3589171;40;20391;-70
2021/08/05 10:44:49;;;;;;;1.50;1.40;;;;;;;22.99;48.78;98235.13;3589281;40;20397;-70
2021/08/05 10:47:22;;;;;;;1.60;1.50;;;;;;;23.04;47.76;98229.66;3588129;40;20052;-70
2021/08/05 10:49:53;;;;;;;3.25;1.83;;;;;;;23.03;47.53;98228.06;3588759;40;20041;-69
2021/08/05 10:52:44;;;;;;;2.28;1.75;;;;;;;23.08;47.76;98228.00;3589317;40;20041;-71
2021/08/05 10:55:32;;;;;;;3.15;2.20;;;;;;;23.17;48.22;98228.16;3588338;40;20048;-70
2021/08/05 10:58:21;;;;;;;2.13;1.80;;;;;;;23.13;48.59;98230.63;3589011;40;20046;-69
2021/08/05 11:00:58;;;;;;;2.38;1.80;;;;;;;22.94;49.63;98224.38;3588331;40;20356;-70
2021/08/05 11:03:47;;;;;;;4.95;2.00;;;;;;;23.02;50.32;98229.13;3588265;40;20057;-69
2021/08/05 11:06:33;;;;;;;1.80;1.70;;;;;;;23.03;50.08;98229.97;3597725;40;20044;-69
2021/08/05 11:09:27;;;;;;;1.85;1.75;;;;;;;23.00;49.08;98220.53;3590294;40;20081;-70
2021/08/05 11:11:57;;;;;;;1.58;1.48;;;;;;;22.96;49.02;98220.31;3590071;40;20068;-71
2021/08/05 11:14:41;;;;;;;1.58;1.48;;;;;;;22.90;48.64;98216.09;3590996;40;20044;-70
2021/08/05 11:17:09;;;;;;;;;;;;;;;22.86;49.06;98220.41;3589584;40;20028;-69
2021/08/05 11:19:42;;;;;;;1.85;1.70;;;;;;;22.78;49.28;98221.03;3588870;40;20017;-70
2021/08/05 11:22:50;;;;;;;1.63;1.52;;;;;;;22.74;50.05;98220.81;3589754;40;20020;-69
2021/08/05 11:25:19;;;;;;;2.00;1.80;;;;;;;22.79;52.10;98211.06;3589167;40;20398;-70
2021/08/05 11:28:23;;;;;;;2.38;2.10;;;;;;;22.72;53.70;98212.19;3591140;40;20059;-71
2021/08/05 11:30:56;;;;;;;3.20;2.10;;;;;;;22.64;54.37;98209.31;3588975;40;20114;-69
2021/08/05 11:33:48;;;;;;;2.03;1.77;;;;;;;22.62;54.76;98212.31;3588487;40;20358;-70
2021/08/05 11:36:27;;;;;;;1.98;1.80;;;;;;;22.51;55.71;98218.88;3588826;40;20056;-70
2021/08/05 11:39:02;;;;;;;9.57;4.15;;;;;;;22.28;57.13;98222.31;3589284;40;20101;-69
2021/08/05 11:41:54;;;;;;;3.03;2.30;;;;;;;21.89;59.74;98240.09;3590158;40;20092;-69
2021/08/05 11:44:39;;;;;;;4.40;2.53;;;;;;;21.47;62.23;98237.91;3594738;40;20031;-68
2021/08/05 11:47:41;;;;;;;3.97;2.78;;;;;;;21.19;62.75;98239.38;3589926;40;20032;-67
2021/08/05 11:50:16;;;;;;;3.85;2.83;;;;;;;21.03;63.20;98238.63;3589176;40;20056;-68